sensor_id;sensor_type;location;lat;lon;timestamp;pressure;altitude;pressure_sealevel;temperature;humidity
29909;BME280;36247;51.952;6.146;2022-10-24T00:02:21;100298.22;;;14.53;100.00
29909;BME280;36247;51.952;6.146;2022-10-24T00:04:47;100299.91;;;14.67;100.00
29909;BME280;36247;51.952;6.146;2022-10-24T00:07:13;100293.75;;;14.61;100.00
29909;BME280;36247;51.952;6.146;2022-10-24T00:09:38;100290.09;;;14.69;100.00
29909;BME280;36247;51.952;6.146;2022-10-24T00:12:05;100293.66;;;14.68;100.00
29909;BME280;36247;51.952;6.146;2022-10-24T00:14:31;100283.94;;;14.63;100.00
29909;BME280;36247;51.952;6.146;2022-10-24T00:16:57;100295.50;;;14.59;100.00
29909;BME280;36247;51.952;6.146;2022-10-24T00:19:23;100281.38;;;14.53;100.00
29909;BME280;36247;51.952;6.146;2022-10-24T00:21:48;100293.03;;;14.41;100.00
29909;BME280;36247;51.952;6.146;2022-10-24T00:24:14;100290.44;;;14.36;100.00
29909;BME280;36247;51.952;6.146;2022-10-24T00:26:40;100287.66;;;14.45;100.00
29909;BME280;36247;51.952;6.146;2022-10-24T00:29:06;100277.81;;;14.51;100.00
29909;BME280;36247;51.952;6.146;2022-10-24T00:31:32;100282.09;;;14.69;100.00
29909;BME280;36247;51.952;6.146;2022-10-24T00:33:58;100271.56;;;14.55;100.00
29909;BME280;36247;51.952;6.146;2022-10-24T00:36:25;100270.75;;;14.45;100.00
29909;BME280;36247;51.952;6.146;2022-10-24T00:38:51;100262.81;;;14.42;100.00
29909;BME280;36247;51.952;6.146;2022-10-24T00:41:25;100255.75;;;14.41;100.00
29909;BME280;36247;51.952;6.146;2022-10-24T00:52:23;100256.94;;;14.91;100.00
29909;BME280;36247;51.952;6.146;2022-10-24T00:54:52;100252.56;;;14.86;100.00
29909;BME280;36247;51.952;6.146;2022-10-24T00:57:30;100252.66;;;14.79;100.00
29909;BME280;36247;51.952;6.146;2022-10-24T01:00:03;100240.03;;;14.91;100.00
29909;BME280;36247;51.952;6.146;2022-10-24T01:02:29;100239.91;;;15.00;100.00
29909;BME280;36247;51.952;6.146;2022-10-24T01:04:55;100236.19;;;15.10;100.00
29909;BME280;36247;51.952;6.146;2022-10-24T01:07:48;100235.50;;;14.97;100.00
29909;BME280;36247;51.952;6.146;2022-10-24T01:10:29;100235.47;;;15.01;100.00
29909;BME280;36247;51.952;6.146;2022-10-24T01:18:27;100241.34;;;15.26;100.00
29909;BME280;36247;51.952;6.146;2022-10-24T01:21:19;100235.00;;;15.31;100.00
29909;BME280;36247;51.952;6.146;2022-10-24T01:24:00;100230.78;;;15.16;100.00
29909;BME280;36247;51.952;6.146;2022-10-24T01:34:58;100219.47;;;15.01;100.00
29909;BME280;36247;51.952;6.146;2022-10-24T01:39:59;100215.19;;;14.87;100.00
29909;BME280;36247;51.952;6.146;2022-10-24T01:42:27;100226.91;;;14.77;100.00
29909;BME280;36247;51.952;6.146;2022-10-24T01:44:55;100219.59;;;14.91;100.00
29909;BME280;36247;51.952;6.146;2022-10-24T01:47:31;100213.56;;;14.77;100.00
29909;BME280;36247;51.952;6.146;2022-10-24T01:50:01;100212.81;;;14.64;100.00
29909;BME280;36247;51.952;6.146;2022-10-24T01:52:32;100205.53;;;14.80;100.00
29909;BME280;36247;51.952;6.146;2022-10-24T01:54:59;100208.25;;;14.75;100.00
29909;BME280;36247;51.952;6.146;2022-10-24T01:57:27;100208.13;;;14.83;100.00
29909;BME280;36247;51.952;6.146;2022-10-24T01:59:53;100194.00;;;14.78;100.00
29909;BME280;36247;51.952;6.146;2022-10-24T02:02:38;100205.25;;;14.98;100.00
29909;BME280;36247;51.952;6.146;2022-10-24T02:05:48;100207.34;;;14.78;100.00
29909;BME280;36247;51.952;6.146;2022-10-24T02:07:57;100206.44;;;14.77;100.00
29909;BME280;36247;51.952;6.146;2022-10-24T02:10:28;100193.06;;;14.79;100.00
29909;BME280;36247;51.952;6.146;2022-10-24T02:13:01;100188.50;;;14.90;100.00
29909;BME280;36247;51.952;6.146;2022-10-24T02:15:30;100193.91;;;14.86;100.00
29909;BME280;36247;51.952;6.146;2022-10-24T02:17:57;100190.34;;;14.84;100.00
29909;BME280;36247;51.952;6.146;2022-10-24T02:20:32;100184.94;;;14.88;100.00
29909;BME280;36247;51.952;6.146;2022-10-24T02:23:04;100188.69;;;14.76;100.00
29909;BME280;36247;51.952;6.146;2022-10-24T02:25:36;100189.66;;;14.71;100.00
29909;BME280;36247;51.952;6.146;2022-10-24T02:28:09;100177.09;;;14.77;100.00
29909;BME280;36247;51.952;6.146;2022-10-24T02:30:46;100180.53;;;14.87;100.00
29909;BME280;36247;51.952;6.146;2022-10-24T02:33:15;100182.88;;;15.09;100.00
29909;BME280;36247;51.952;6.146;2022-10-24T02:35:41;100178.44;;;15.09;100.00
29909;BME280;36247;51.952;6.146;2022-10-24T02:38:13;100186.38;;;15.14;100.00
29909;BME280;36247;51.952;6.146;2022-10-24T02:40:42;100182.16;;;14.97;100.00
29909;BME280;36247;51.952;6.146;2022-10-24T02:43:09;100178.47;;;15.06;100.00
29909;BME280;36247;51.952;6.146;2022-10-24T02:45:37;100172.41;;;14.96;100.00
29909;BME280;36247;51.952;6.146;2022-10-24T02:48:07;100181.44;;;14.85;100.00
29909;BME280;36247;51.952;6.146;2022-10-24T02:50:34;100170.66;;;14.94;100.00
29909;BME280;36247;51.952;6.146;2022-10-24T02:53:00;100175.16;;;14.90;100.00
29909;BME280;36247;51.952;6.146;2022-10-24T02:55:27;100169.66;;;15.01;100.00
29909;BME280;36247;51.952;6.146;2022-10-24T02:57:53;100178.47;;;15.05;100.00
29909;BME280;36247;51.952;6.146;2022-10-24T03:00:19;100166.00;;;15.07;100.00
29909;BME280;36247;51.952;6.146;2022-10-24T03:02:44;100170.44;;;15.09;100.00
29909;BME280;36247;51.952;6.146;2022-10-24T03:05:10;100174.81;;;15.12;100.00
29909;BME280;36247;51.952;6.146;2022-10-24T03:07:36;100172.19;;;15.09;100.00
29909;BME280;36247;51.952;6.146;2022-10-24T03:10:02;100180.19;;;15.09;100.00
29909;BME280;36247;51.952;6.146;2022-10-24T03:12:28;100184.00;;;14.92;100.00
29909;BME280;36247;51.952;6.146;2022-10-24T03:14:54;100183.38;;;14.73;100.00
29909;BME280;36247;51.952;6.146;2022-10-24T03:17:19;100178.91;;;14.77;100.00
29909;BME280;36247;51.952;6.146;2022-10-24T03:19:46;100176.84;;;14.96;100.00
29909;BME280;36247;51.952;6.146;2022-10-24T03:22:12;100169.34;;;15.21;100.00
29909;BME280;36247;51.952;6.146;2022-10-24T03:24:37;100171.28;;;15.11;100.00
29909;BME280;36247;51.952;6.146;2022-10-24T03:27:03;100176.88;;;14.94;100.00
29909;BME280;36247;51.952;6.146;2022-10-24T03:29:29;100182.13;;;15.01;100.00
29909;BME280;36247;51.952;6.146;2022-10-24T03:31:55;100183.75;;;15.11;100.00
29909;BME280;36247;51.952;6.146;2022-10-24T03:34:20;100188.50;;;14.90;100.00
29909;BME280;36247;51.952;6.146;2022-10-24T03:36:46;100184.13;;;14.83;100.00
29909;BME280;36247;51.952;6.146;2022-10-24T03:39:12;100183.28;;;14.81;100.00
29909;BME280;36247;51.952;6.146;2022-10-24T03:41:37;100185.13;;;14.76;100.00
29909;BME280;36247;51.952;6.146;2022-10-24T03:44:03;100186.03;;;14.76;100.00
29909;BME280;36247;51.952;6.146;2022-10-24T03:46:28;100180.63;;;14.81;100.00
29909;BME280;36247;51.952;6.146;2022-10-24T03:48:54;100186.72;;;14.89;100.00
29909;BME280;36247;51.952;6.146;2022-10-24T03:51:19;100181.03;;;15.14;100.00
29909;BME280;36247;51.952;6.146;2022-10-24T03:53:45;100190.81;;;15.12;100.00
29909;BME280;36247;51.952;6.146;2022-10-24T03:56:11;100175.66;;;15.15;100.00
29909;BME280;36247;51.952;6.146;2022-10-24T03:58:37;100182.13;;;15.01;100.00
29909;BME280;36247;51.952;6.146;2022-10-24T04:01:03;100176.72;;;15.04;100.00
29909;BME280;36247;51.952;6.146;2022-10-24T04:03:28;100185.41;;;15.16;100.00
29909;BME280;36247;51.952;6.146;2022-10-24T04:05:54;100177.78;;;14.92;100.00
29909;BME280;36247;51.952;6.146;2022-10-24T04:08:19;100190.22;;;14.94;100.00
29909;BME280;36247;51.952;6.146;2022-10-24T04:10:48;100185.97;;;14.81;100.00
29909;BME280;36247;51.952;6.146;2022-10-24T04:13:14;100183.28;;;14.83;100.00
29909;BME280;36247;51.952;6.146;2022-10-24T04:15:40;100184.88;;;14.94;100.00
29909;BME280;36247;51.952;6.146;2022-10-24T04:18:06;100179.72;;;14.80;100.00
29909;BME280;36247;51.952;6.146;2022-10-24T04:20:33;100178.09;;;14.70;100.00
29909;BME280;36247;51.952;6.146;2022-10-24T04:22:58;100180.66;;;14.78;100.00
29909;BME280;36247;51.952;6.146;2022-10-24T04:25:24;100163.78;;;14.76;100.00
29909;BME280;36247;51.952;6.146;2022-10-24T04:27:49;100172.69;;;14.75;100.00
29909;BME280;36247;51.952;6.146;2022-10-24T04:30:15;100184.22;;;14.77;100.00
29909;BME280;36247;51.952;6.146;2022-10-24T04:32:41;100178.22;;;14.58;100.00
29909;BME280;36247;51.952;6.146;2022-10-24T04:35:07;100171.13;;;14.61;100.00
29909;BME280;36247;51.952;6.146;2022-10-24T04:37:33;100170.22;;;14.59;100.00
29909;BME280;36247;51.952;6.146;2022-10-24T04:39:58;100174.69;;;14.57;100.00
29909;BME280;36247;51.952;6.146;2022-10-24T04:42:24;100164.97;;;14.52;100.00
29909;BME280;36247;51.952;6.146;2022-10-24T04:44:50;100167.44;;;14.69;100.00
29909;BME280;36247;51.952;6.146;2022-10-24T04:47:16;100169.16;;;14.74;100.00
29909;BME280;36247;51.952;6.146;2022-10-24T04:49:42;100164.88;;;14.59;100.00
29909;BME280;36247;51.952;6.146;2022-10-24T04:52:07;100167.28;;;14.81;100.00
29909;BME280;36247;51.952;6.146;2022-10-24T04:54:33;100158.56;;;14.68;100.00
29909;BME280;36247;51.952;6.146;2022-10-24T04:56:59;100168.38;;;14.68;100.00
29909;BME280;36247;51.952;6.146;2022-10-24T04:59:24;100171.00;;;14.69;100.00
29909;BME280;36247;51.952;6.146;2022-10-24T05:01:50;100158.66;;;14.62;100.00
29909;BME280;36247;51.952;6.146;2022-10-24T05:04:16;100169.25;;;14.68;100.00
29909;BME280;36247;51.952;6.146;2022-10-24T05:06:42;100173.56;;;14.77;100.00
29909;BME280;36247;51.952;6.146;2022-10-24T05:09:07;100167.50;;;14.64;100.00
29909;BME280;36247;51.952;6.146;2022-10-24T05:11:33;100175.59;;;14.56;100.00
29909;BME280;36247;51.952;6.146;2022-10-24T05:13:59;100175.63;;;14.53;100.00
29909;BME280;36247;51.952;6.146;2022-10-24T05:16:25;100183.53;;;14.59;100.00
29909;BME280;36247;51.952;6.146;2022-10-24T05:18:51;100187.09;;;14.63;100.00
29909;BME280;36247;51.952;6.146;2022-10-24T05:21:16;100188.88;;;14.58;100.00
29909;BME280;36247;51.952;6.146;2022-10-24T05:23:42;100190.38;;;14.80;100.00
29909;BME280;36247;51.952;6.146;2022-10-24T05:26:07;100193.16;;;14.73;100.00
29909;BME280;36247;51.952;6.146;2022-10-24T05:28:33;100190.28;;;14.87;100.00
29909;BME280;36247;51.952;6.146;2022-10-24T05:30:59;100194.91;;;14.75;100.00
29909;BME280;36247;51.952;6.146;2022-10-24T05:33:25;100196.75;;;14.70;100.00
29909;BME280;36247;51.952;6.146;2022-10-24T05:35:51;100198.47;;;14.74;100.00
29909;BME280;36247;51.952;6.146;2022-10-24T05:38:17;100194.06;;;14.72;100.00
29909;BME280;36247;51.952;6.146;2022-10-24T05:40:44;100192.34;;;14.68;100.00
29909;BME280;36247;51.952;6.146;2022-10-24T05:43:14;100196.75;;;14.69;100.00
29909;BME280;36247;51.952;6.146;2022-10-24T05:45:41;100198.63;;;14.63;100.00
29909;BME280;36247;51.952;6.146;2022-10-24T05:48:07;100196.69;;;14.76;100.00
29909;BME280;36247;51.952;6.146;2022-10-24T05:50:33;100187.97;;;14.60;100.00
29909;BME280;36247;51.952;6.146;2022-10-24T05:52:59;100199.44;;;14.69;100.00
29909;BME280;36247;51.952;6.146;2022-10-24T05:55:25;100202.06;;;14.72;100.00
29909;BME280;36247;51.952;6.146;2022-10-24T05:57:51;100202.78;;;14.85;100.00
29909;BME280;36247;51.952;6.146;2022-10-24T06:00:18;100197.38;;;14.89;100.00
29909;BME280;36247;51.952;6.146;2022-10-24T06:02:44;100192.97;;;14.87;100.00
29909;BME280;36247;51.952;6.146;2022-10-24T06:05:10;100198.47;;;14.76;100.00
29909;BME280;36247;51.952;6.146;2022-10-24T06:07:36;100203.00;;;14.69;100.00
29909;BME280;36247;51.952;6.146;2022-10-24T06:10:04;100184.22;;;14.78;100.00
29909;BME280;36247;51.952;6.146;2022-10-24T06:12:30;100192.13;;;14.85;100.00
29909;BME280;36247;51.952;6.146;2022-10-24T06:14:57;100184.94;;;14.88;100.00
29909;BME280;36247;51.952;6.146;2022-10-24T06:17:23;100194.66;;;14.92;100.00
29909;BME280;36247;51.952;6.146;2022-10-24T06:19:49;100186.97;;;14.72;100.00
29909;BME280;36247;51.952;6.146;2022-10-24T06:22:16;100206.25;;;14.91;100.00
29909;BME280;36247;51.952;6.146;2022-10-24T06:24:42;100196.50;;;14.90;100.00
29909;BME280;36247;51.952;6.146;2022-10-24T06:27:07;100201.78;;;14.92;100.00
29909;BME280;36247;51.952;6.146;2022-10-24T06:29:33;100206.97;;;15.03;100.00
29909;BME280;36247;51.952;6.146;2022-10-24T06:32:00;100204.47;;;14.92;100.00
29909;BME280;36247;51.952;6.146;2022-10-24T06:34:26;100198.22;;;14.94;100.00
29909;BME280;36247;51.952;6.146;2022-10-24T06:36:52;100202.59;;;14.97;100.00
29909;BME280;36247;51.952;6.146;2022-10-24T06:39:18;100200.06;;;14.88;100.00
29909;BME280;36247;51.952;6.146;2022-10-24T06:41:43;100195.59;;;14.90;100.00
29909;BME280;36247;51.952;6.146;2022-10-24T06:44:12;100207.31;;;14.79;100.00
29909;BME280;36247;51.952;6.146;2022-10-24T06:46:38;100208.06;;;14.88;100.00
29909;BME280;36247;51.952;6.146;2022-10-24T06:49:04;100211.53;;;14.96;100.00
29909;BME280;36247;51.952;6.146;2022-10-24T06:51:31;100218.63;;;14.95;100.00
29909;BME280;36247;51.952;6.146;2022-10-24T06:53:57;100220.34;;;15.01;100.00
29909;BME280;36247;51.952;6.146;2022-10-24T06:56:23;100215.38;;;14.73;100.00
29909;BME280;36247;51.952;6.146;2022-10-24T06:58:49;100223.34;;;14.78;100.00
29909;BME280;36247;51.952;6.146;2022-10-24T07:01:17;100229.50;;;14.80;100.00
29909;BME280;36247;51.952;6.146;2022-10-24T07:03:44;100233.78;;;14.93;100.00
29909;BME280;36247;51.952;6.146;2022-10-24T07:06:25;100239.91;;;14.98;100.00
29909;BME280;36247;51.952;6.146;2022-10-24T07:08:56;100240.63;;;15.13;100.00
29909;BME280;36247;51.952;6.146;2022-10-24T07:11:23;100242.38;;;15.15;100.00
29909;BME280;36247;51.952;6.146;2022-10-24T07:13:49;100240.50;;;15.21;100.00
29909;BME280;36247;51.952;6.146;2022-10-24T07:16:15;100242.16;;;15.29;100.00
29909;BME280;36247;51.952;6.146;2022-10-24T07:18:41;100261.34;;;15.55;100.00
29909;BME280;36247;51.952;6.146;2022-10-24T07:21:10;100242.00;;;15.39;100.00
29909;BME280;36247;51.952;6.146;2022-10-24T07:23:37;100256.63;;;15.72;100.00
29909;BME280;36247;51.952;6.146;2022-10-24T07:26:05;100259.13;;;15.83;100.00
29909;BME280;36247;51.952;6.146;2022-10-24T07:28:32;100259.31;;;15.71;100.00
29909;BME280;36247;51.952;6.146;2022-10-24T07:30:58;100257.53;;;15.69;100.00
29909;BME280;36247;51.952;6.146;2022-10-24T07:33:25;100262.16;;;15.58;100.00
29909;BME280;36247;51.952;6.146;2022-10-24T07:35:51;100257.41;;;15.77;100.00
29909;BME280;36247;51.952;6.146;2022-10-24T07:38:17;100262.41;;;16.00;100.00
29909;BME280;36247;51.952;6.146;2022-10-24T07:40:43;100258.97;;;15.92;100.00
29909;BME280;36247;51.952;6.146;2022-10-24T07:43:09;100266.56;;;15.61;100.00
29909;BME280;36247;51.952;6.146;2022-10-24T07:45:36;100266.66;;;15.56;100.00
29909;BME280;36247;51.952;6.146;2022-10-24T07:48:02;100264.56;;;15.77;100.00
29909;BME280;36247;51.952;6.146;2022-10-24T07:50:32;100277.81;;;15.84;100.00
29909;BME280;36247;51.952;6.146;2022-10-24T07:53:01;100270.47;;;15.96;100.00
29909;BME280;36247;51.952;6.146;2022-10-24T07:55:29;100279.38;;;15.96;100.00
29909;BME280;36247;51.952;6.146;2022-10-24T07:57:55;100280.16;;;16.01;100.00
29909;BME280;36247;51.952;6.146;2022-10-24T08:00:20;100279.69;;;15.78;100.00
29909;BME280;36247;51.952;6.146;2022-10-24T08:02:46;100283.81;;;15.99;100.00
29909;BME280;36247;51.952;6.146;2022-10-24T08:05:12;100283.53;;;16.13;100.00
29909;BME280;36247;51.952;6.146;2022-10-24T08:07:43;100277.41;;;16.06;100.00
29909;BME280;36247;51.952;6.146;2022-10-24T08:10:11;100293.59;;;15.98;100.00
29909;BME280;36247;51.952;6.146;2022-10-24T08:12:37;100279.13;;;16.10;100.00
29909;BME280;36247;51.952;6.146;2022-10-24T08:15:06;100285.41;;;16.08;100.00
29909;BME280;36247;51.952;6.146;2022-10-24T08:17:32;100305.19;;;15.97;100.00
29909;BME280;36247;51.952;6.146;2022-10-24T08:19:58;100294.50;;;15.99;100.00
29909;BME280;36247;51.952;6.146;2022-10-24T08:22:23;100298.94;;;15.97;100.00
29909;BME280;36247;51.952;6.146;2022-10-24T08:24:49;100293.75;;;15.89;100.00
29909;BME280;36247;51.952;6.146;2022-10-24T08:27:17;100302.75;;;15.82;100.00
29909;BME280;36247;51.952;6.146;2022-10-24T08:29:45;100309.88;;;15.83;100.00
29909;BME280;36247;51.952;6.146;2022-10-24T08:32:11;100309.81;;;15.88;100.00
29909;BME280;36247;51.952;6.146;2022-10-24T08:34:37;100320.63;;;15.78;100.00
29909;BME280;36247;51.952;6.146;2022-10-24T08:37:03;100317.97;;;15.77;100.00
29909;BME280;36247;51.952;6.146;2022-10-24T08:39:32;100336.75;;;15.71;100.00
29909;BME280;36247;51.952;6.146;2022-10-24T08:42:03;100343.00;;;15.69;100.00
29909;BME280;36247;51.952;6.146;2022-10-24T08:44:36;100350.19;;;15.63;100.00
29909;BME280;36247;51.952;6.146;2022-10-24T08:52:40;100335.56;;;15.28;100.00
29909;BME280;36247;51.952;6.146;2022-10-24T08:55:12;100342.56;;;15.38;100.00
29909;BME280;36247;51.952;6.146;2022-10-24T08:57:42;100338.78;;;15.53;100.00
29909;BME280;36247;51.952;6.146;2022-10-24T09:00:23;100331.47;;;15.67;100.00
29909;BME280;36247;51.952;6.146;2022-10-24T09:03:00;100341.03;;;15.84;100.00
29909;BME280;36247;51.952;6.146;2022-10-24T09:05:39;100333.06;;;15.81;100.00
29909;BME280;36247;51.952;6.146;2022-10-24T09:08:20;100345.47;;;15.83;100.00
29909;BME280;36247;51.952;6.146;2022-10-24T09:10:56;100340.88;;;15.93;100.00
29909;BME280;36247;51.952;6.146;2022-10-24T09:13:26;100360.38;;;15.98;100.00
29909;BME280;36247;51.952;6.146;2022-10-24T09:15:52;100353.06;;;16.10;100.00
29909;BME280;36247;51.952;6.146;2022-10-24T09:18:23;100334.38;;;16.10;100.00
29909;BME280;36247;51.952;6.146;2022-10-24T09:20:52;100345.78;;;16.18;100.00
29909;BME280;36247;51.952;6.146;2022-10-24T09:23:23;100341.28;;;16.21;100.00
29909;BME280;36247;51.952;6.146;2022-10-24T09:25:54;100355.53;;;16.22;100.00
29909;BME280;36247;51.952;6.146;2022-10-24T09:28:21;100355.44;;;16.27;100.00
29909;BME280;36247;51.952;6.146;2022-10-24T09:30:48;100343.84;;;16.29;100.00
29909;BME280;36247;51.952;6.146;2022-10-24T09:33:34;100350.78;;;16.39;100.00
29909;BME280;36247;51.952;6.146;2022-10-24T09:36:02;100364.22;;;16.36;100.00
29909;BME280;36247;51.952;6.146;2022-10-24T09:38:31;100361.34;;;16.46;100.00
29909;BME280;36247;51.952;6.146;2022-10-24T09:41:19;100363.75;;;16.61;100.00
29909;BME280;36247;51.952;6.146;2022-10-24T09:43:51;100358.28;;;16.67;100.00
29909;BME280;36247;51.952;6.146;2022-10-24T09:46:37;100360.47;;;16.94;100.00
29909;BME280;36247;51.952;6.146;2022-10-24T09:49:18;100379.53;;;16.77;100.00
29909;BME280;36247;51.952;6.146;2022-10-24T09:51:57;100385.28;;;17.03;100.00
29909;BME280;36247;51.952;6.146;2022-10-24T09:54:27;100371.34;;;16.84;100.00
29909;BME280;36247;51.952;6.146;2022-10-24T09:57:12;100377.97;;;17.12;100.00
29909;BME280;36247;51.952;6.146;2022-10-24T09:59:44;100389.53;;;17.56;100.00
29909;BME280;36247;51.952;6.146;2022-10-24T10:04:40;100389.31;;;18.04;100.00
29909;BME280;36247;51.952;6.146;2022-10-24T10:07:11;100399.13;;;18.05;100.00
29909;BME280;36247;51.952;6.146;2022-10-24T10:09:37;100389.47;;;17.98;100.00
29909;BME280;36247;51.952;6.146;2022-10-24T10:12:40;100408.41;;;18.28;100.00
29909;BME280;36247;51.952;6.146;2022-10-24T10:15:43;100395.34;;;17.73;100.00
29909;BME280;36247;51.952;6.146;2022-10-24T10:21:09;100406.84;;;17.39;100.00
29909;BME280;36247;51.952;6.146;2022-10-24T10:23:46;100405.16;;;18.49;100.00
29909;BME280;36247;51.952;6.146;2022-10-24T10:26:24;100402.91;;;19.33;100.00
29909;BME280;36247;51.952;6.146;2022-10-24T10:29:05;100410.78;;;17.63;100.00
29909;BME280;36247;51.952;6.146;2022-10-24T10:31:53;100411.47;;;18.12;100.00
29909;BME280;36247;51.952;6.146;2022-10-24T10:34:27;100414.59;;;17.52;100.00
29909;BME280;36247;51.952;6.146;2022-10-24T10:37:31;100428.31;;;17.36;100.00
29909;BME280;36247;51.952;6.146;2022-10-24T10:41:05;100418.03;;;17.57;100.00
29909;BME280;36247;51.952;6.146;2022-10-24T10:43:15;100430.06;;;17.37;100.00
29909;BME280;36247;51.952;6.146;2022-10-24T10:45:50;100426.72;;;18.09;100.00
29909;BME280;36247;51.952;6.146;2022-10-24T10:48:36;100436.31;;;19.23;100.00
29909;BME280;36247;51.952;6.146;2022-10-24T10:56:27;100429.91;;;18.61;100.00
29909;BME280;36247;51.952;6.146;2022-10-24T10:59:14;100440.50;;;18.67;100.00
29909;BME280;36247;51.952;6.146;2022-10-24T11:04:36;100447.03;;;18.19;100.00
29909;BME280;36247;51.952;6.146;2022-10-24T11:09:48;100447.69;;;17.93;100.00
29909;BME280;36247;51.952;6.146;2022-10-24T11:12:24;100451.75;;;18.81;100.00
29909;BME280;36247;51.952;6.146;2022-10-24T11:15:05;100451.75;;;18.09;100.00
29909;BME280;36247;51.952;6.146;2022-10-24T11:17:42;100447.38;;;18.05;100.00
29909;BME280;36247;51.952;6.146;2022-10-24T11:20:28;100456.63;;;18.29;100.00
29909;BME280;36247;51.952;6.146;2022-10-24T11:25:43;100466.66;;;17.80;100.00
29909;BME280;36247;51.952;6.146;2022-10-24T11:28:17;100465.81;;;17.78;100.00
29909;BME280;36247;51.952;6.146;2022-10-24T11:33:23;100476.00;;;17.61;100.00
29909;BME280;36247;51.952;6.146;2022-10-24T11:36:15;100472.13;;;17.32;100.00
29909;BME280;36247;51.952;6.146;2022-10-24T11:38:54;100485.41;;;17.38;100.00
29909;BME280;36247;51.952;6.146;2022-10-24T11:41:47;100486.69;;;17.17;100.00
29909;BME280;36247;51.952;6.146;2022-10-24T11:47:25;100492.91;;;18.07;100.00
29909;BME280;36247;51.952;6.146;2022-10-24T11:52:34;100500.94;;;17.65;100.00
29909;BME280;36247;51.952;6.146;2022-10-24T11:55:16;100488.72;;;17.51;100.00
29909;BME280;36247;51.952;6.146;2022-10-24T11:57:45;100499.09;;;17.23;100.00
29909;BME280;36247;51.952;6.146;2022-10-24T12:00:24;100501.72;;;16.17;100.00
29909;BME280;36247;51.952;6.146;2022-10-24T12:03:10;100506.25;;;16.12;100.00
29909;BME280;36247;51.952;6.146;2022-10-24T12:11:06;100491.41;;;16.50;100.00
29909;BME280;36247;51.952;6.146;2022-10-24T12:19:25;100543.19;;;15.79;100.00
29909;BME280;36247;51.952;6.146;2022-10-24T12:21:54;100540.50;;;14.95;100.00
29909;BME280;36247;51.952;6.146;2022-10-24T12:24:26;100542.31;;;14.88;100.00
29909;BME280;36247;51.952;6.146;2022-10-24T12:26:55;100556.66;;;14.79;100.00
29909;BME280;36247;51.952;6.146;2022-10-24T12:29:24;100540.56;;;14.89;100.00
29909;BME280;36247;51.952;6.146;2022-10-24T12:31:50;100556.47;;;14.98;100.00
29909;BME280;36247;51.952;6.146;2022-10-24T12:39:30;100556.63;;;14.81;100.00
29909;BME280;36247;51.952;6.146;2022-10-24T12:41:56;100552.25;;;14.74;100.00
29909;BME280;36247;51.952;6.146;2022-10-24T12:46:59;100553.13;;;14.71;100.00
29909;BME280;36247;51.952;6.146;2022-10-24T12:49:30;100546.91;;;14.72;100.00
29909;BME280;36247;51.952;6.146;2022-10-24T12:51:56;100551.94;;;15.08;100.00
29909;BME280;36247;51.952;6.146;2022-10-24T12:54:39;100547.63;;;14.93;100.00
29909;BME280;36247;51.952;6.146;2022-10-24T13:16:06;100575.31;;;14.75;100.00
29909;BME280;36247;51.952;6.146;2022-10-24T13:19:00;100554.09;;;14.62;100.00
29909;BME280;36247;51.952;6.146;2022-10-24T13:24:09;100560.13;;;14.86;100.00
29909;BME280;36247;51.952;6.146;2022-10-24T13:31:55;100548.28;;;15.16;100.00
29909;BME280;36247;51.952;6.146;2022-10-24T13:39:54;100550.06;;;15.18;100.00
29909;BME280;36247;51.952;6.146;2022-10-24T13:42:32;100558.72;;;15.41;100.00
29909;BME280;36247;51.952;6.146;2022-10-24T13:45:03;100562.06;;;15.63;100.00
29909;BME280;36247;51.952;6.146;2022-10-24T13:52:47;100561.91;;;15.76;100.00
29909;BME280;36247;51.952;6.146;2022-10-24T13:57:59;100560.91;;;15.88;100.00
29909;BME280;36247;51.952;6.146;2022-10-24T14:00:29;100569.88;;;15.82;100.00
29909;BME280;36247;51.952;6.146;2022-10-24T14:02:56;100557.44;;;15.76;100.00
29909;BME280;36247;51.952;6.146;2022-10-24T14:05:49;100564.59;;;15.73;100.00
29909;BME280;36247;51.952;6.146;2022-10-24T14:10:51;100563.84;;;15.61;100.00
29909;BME280;36247;51.952;6.146;2022-10-24T14:13:18;100561.22;;;15.55;100.00
29909;BME280;36247;51.952;6.146;2022-10-24T14:15:51;100563.91;;;15.55;100.00
29909;BME280;36247;51.952;6.146;2022-10-24T14:18:18;100564.72;;;15.63;100.00
29909;BME280;36247;51.952;6.146;2022-10-24T14:20:54;100564.75;;;15.62;100.00
29909;BME280;36247;51.952;6.146;2022-10-24T14:26:12;100560.22;;;15.65;100.00
29909;BME280;36247;51.952;6.146;2022-10-24T14:28:45;100558.25;;;15.86;100.00
29909;BME280;36247;51.952;6.146;2022-10-24T14:31:33;100554.63;;;15.90;100.00
29909;BME280;36247;51.952;6.146;2022-10-24T14:34:01;100556.34;;;15.94;100.00
29909;BME280;36247;51.952;6.146;2022-10-24T14:36:33;100567.88;;;15.99;100.00
29909;BME280;36247;51.952;6.146;2022-10-24T14:39:03;100565.94;;;16.09;100.00
29909;BME280;36247;51.952;6.146;2022-10-24T14:41:38;100571.28;;;16.09;100.00
29909;BME280;36247;51.952;6.146;2022-10-24T14:44:09;100576.75;;;16.00;100.00
29909;BME280;36247;51.952;6.146;2022-10-24T14:46:38;100577.53;;;16.10;100.00
29909;BME280;36247;51.952;6.146;2022-10-24T14:51:59;100576.84;;;16.59;100.00
29909;BME280;36247;51.952;6.146;2022-10-24T14:54:32;100568.09;;;16.48;100.00
29909;BME280;36247;51.952;6.146;2022-10-24T14:56:59;100570.94;;;16.35;100.00
29909;BME280;36247;51.952;6.146;2022-10-24T14:59:30;100576.56;;;16.17;100.00
29909;BME280;36247;51.952;6.146;2022-10-24T15:04:41;100578.53;;;16.01;100.00